Time;durP1;ratioP1;P1;durP2;ratioP2;P2;SDS_P1;SDS_P2;PMS_P1;PMS_P2;Temp;Humidity;BMP_temperature;BMP_pressure;BME280_temperature;BME280_humidity;BME280_pressure;Samples;Min_cycle;Max_cycle;Signal;HPM_P1;HPM_P2
2022/04/25 00:01:17;;;;;;;4.10;1.40;;;17.80;57.60;;;;;;5026379;28;20201;-57
2022/04/25 00:03:48;;;;;;;2.35;1.10;;;17.90;57.70;;;;;;5027940;28;20223;-58
2022/04/25 00:06:19;;;;;;;3.33;1.33;;;17.90;57.70;;;;;;5028448;28;20351;-58
2022/04/25 00:08:49;;;;;;;2.88;1.40;;;17.90;57.60;;;;;;5015254;28;20256;-58
2022/04/25 00:11:22;;;;;;;2.88;1.17;;;17.90;57.50;;;;;;5012464;28;20201;-57
2022/04/25 00:13:52;;;;;;;5.57;1.40;;;18.00;57.50;;;;;;5012441;28;20722;-58
2022/04/25 00:16:23;;;;;;;3.22;1.30;;;18.00;57.50;;;;;;5012186;28;20212;-58
2022/04/25 00:18:54;;;;;;;1.95;1.05;;;18.00;57.40;;;;;;5012050;28;20736;-58
2022/04/25 00:21:25;;;;;;;2.85;1.20;;;18.00;57.40;;;;;;5011464;28;20259;-58
2022/04/25 00:23:55;;;;;;;1.67;1.10;;;18.10;57.50;;;;;;5011582;28;20225;-58
2022/04/25 00:26:27;;;;;;;2.92;1.30;;;18.10;57.50;;;;;;5011984;28;20322;-58
2022/04/25 00:28:58;;;;;;;2.22;1.33;;;18.10;57.50;;;;;;5011861;28;20224;-57
2022/04/25 00:31:28;;;;;;;2.88;1.25;;;18.20;57.50;;;;;;5011718;28;20238;-57
2022/04/25 00:33:59;;;;;;;2.28;1.17;;;18.20;57.50;;;;;;5011877;28;20220;-57
2022/04/25 00:36:30;;;;;;;2.45;1.02;;;18.20;57.50;;;;;;5011930;28;20256;-57
2022/04/25 00:39:00;;;;;;;3.30;1.50;;;18.20;57.50;;;;;;5010779;28;20263;-57
2022/04/25 00:41:33;;;;;;;3.67;1.20;;;18.30;57.60;;;;;;5011752;28;20197;-57
2022/04/25 00:44:04;;;;;;;3.42;1.40;;;18.30;57.60;;;;;;5011631;28;20726;-57
2022/04/25 00:46:34;;;;;;;2.95;1.25;;;18.30;57.60;;;;;;5011632;28;20225;-57
2022/04/25 00:49:05;;;;;;;3.05;1.10;;;18.40;57.60;;;;;;5011622;28;20254;-57
2022/04/25 00:51:35;;;;;;;2.00;1.15;;;18.40;57.60;;;;;;5011240;28;20649;-57
2022/04/25 00:54:06;;;;;;;2.70;1.40;;;18.40;57.60;;;;;;5011368;28;20626;-57
2022/04/25 00:56:39;;;;;;;1.75;1.30;;;18.40;57.50;;;;;;5011882;28;20689;-57
2022/04/25 00:59:10;;;;;;;3.25;1.20;;;18.50;57.50;;;;;;5011835;28;20197;-57
2022/04/25 01:01:40;;;;;;;3.05;1.27;;;18.50;57.50;;;;;;5011642;28;20220;-57
2022/04/25 01:04:11;;;;;;;3.40;1.40;;;18.50;57.50;;;;;;5006644;28;20243;-57
2022/04/25 01:06:42;;;;;;;2.13;1.10;;;18.60;57.50;;;;;;5002185;28;20692;-57
2022/04/25 01:09:13;;;;;;;2.28;1.10;;;18.60;57.40;;;;;;5010522;28;20201;-57
2022/04/25 01:11:45;;;;;;;2.25;1.23;;;18.60;57.40;;;;;;5011109;28;20242;-57
2022/04/25 01:14:17;;;;;;;2.03;1.05;;;18.60;57.50;;;;;;5010946;28;20197;-57
2022/04/25 01:16:49;;;;;;;2.25;1.20;;;18.70;57.60;;;;;;5011531;28;20212;-57
2022/04/25 01:19:20;;;;;;;3.92;1.40;;;18.70;57.60;;;;;;5011301;28;20192;-57
2022/04/25 01:21:57;;;;;;;2.40;1.13;;;18.70;57.50;;;;;;5010902;28;20197;-57
2022/04/25 01:27:30;;;;;;;2.70;1.08;;;18.80;57.60;;;;;;4950361;29;20230;-58
2022/04/25 01:30:01;;;;;;;2.65;1.30;;;18.90;57.50;;;;;;4998498;28;20208;-58
2022/04/25 01:32:32;;;;;;;1.90;1.00;;;18.90;57.50;;;;;;5011669;28;20228;-58
2022/04/25 01:35:03;;;;;;;2.08;1.42;;;18.90;57.50;;;;;;5011264;28;20567;-58
2022/04/25 01:37:33;;;;;;;2.83;1.10;;;18.90;57.50;;;;;;5007029;28;20203;-58
2022/04/25 01:40:06;;;;;;;1.88;0.90;;;19.00;57.60;;;;;;5004907;28;20200;-58
2022/04/25 01:42:37;;;;;;;2.08;1.13;;;19.00;57.50;;;;;;5011984;28;20718;-58
2022/04/25 01:45:08;;;;;;;2.65;1.20;;;19.00;57.50;;;;;;5011226;28;20251;-58
2022/04/25 01:47:40;;;;;;;2.13;1.13;;;19.10;57.50;;;;;;5011400;28;20226;-58
2022/04/25 01:50:11;;;;;;;2.50;1.33;;;19.10;57.40;;;;;;5011748;28;20247;-58
2022/04/25 01:52:42;;;;;;;2.15;0.90;;;19.20;57.40;;;;;;5014742;28;20236;-57
2022/04/25 01:55:14;;;;;;;3.58;1.10;;;19.20;57.30;;;;;;5014940;28;20255;-58
2022/04/25 01:57:45;;;;;;;1.35;1.00;;;19.20;57.30;;;;;;5015333;28;20201;-58
2022/04/25 02:00:16;;;;;;;2.10;1.13;;;19.20;57.20;;;;;;5014781;28;20200;-58
2022/04/25 02:02:46;;;;;;;2.22;0.82;;;19.30;57.20;;;;;;5014386;28;20200;-58
2022/04/25 02:05:17;;;;;;;1.75;1.10;;;19.30;57.20;;;;;;5014830;28;20251;-57
2022/04/25 02:07:48;;;;;;;2.25;0.90;;;19.40;57.20;;;;;;5014735;28;20286;-58
2022/04/25 02:10:20;;;;;;;2.45;1.02;;;19.40;57.20;;;;;;5014409;28;20319;-58
2022/04/25 02:12:50;;;;;;;1.55;0.95;;;19.40;57.10;;;;;;5014708;28;20197;-58
2022/04/25 02:15:21;;;;;;;1.60;0.90;;;19.50;57.20;;;;;;5014122;28;20217;-58
2022/04/25 02:17:52;;;;;;;2.15;1.10;;;19.50;57.10;;;;;;5013891;28;20243;-58
2022/04/25 02:20:22;;;;;;;1.90;0.90;;;19.60;57.10;;;;;;5014776;28;20247;-58
2022/04/25 02:22:53;;;;;;;1.83;1.10;;;19.60;57.10;;;;;;5014677;28;20555;-58
2022/04/25 02:25:26;;;;;;;1.40;0.82;;;19.60;57.00;;;;;;5013658;28;20225;-58
2022/04/25 02:27:57;;;;;;;1.75;0.90;;;19.60;57.20;;;;;;5014203;28;20224;-58
2022/04/25 02:30:27;;;;;;;1.63;0.95;;;19.70;57.00;;;;;;5013847;28;20189;-58
2022/04/25 02:32:58;;;;;;;1.50;0.95;;;19.70;56.90;;;;;;5014155;28;20236;-58
2022/04/25 02:35:28;;;;;;;1.45;1.00;;;19.80;56.90;;;;;;5014657;28;20213;-58
2022/04/25 02:37:59;;;;;;;2.10;0.80;;;19.80;56.80;;;;;;5013678;28;20216;-58
2022/04/25 02:40:31;;;;;;;1.40;0.80;;;19.80;56.80;;;;;;5013912;28;20228;-58
2022/04/25 02:43:02;;;;;;;1.65;0.98;;;19.90;56.70;;;;;;5014893;28;20259;-58
2022/04/25 02:45:32;;;;;;;2.35;1.08;;;20.00;56.70;;;;;;5013934;28;20213;-58
2022/04/25 02:48:03;;;;;;;1.75;0.90;;;20.00;56.60;;;;;;5014115;28;20586;-57
2022/04/25 02:50:33;;;;;;;2.58;0.90;;;20.10;56.60;;;;;;5014349;28;20576;-58
2022/04/25 02:53:04;;;;;;;1.85;0.85;;;20.10;56.50;;;;;;5013942;28;20613;-58
2022/04/25 02:55:36;;;;;;;1.33;0.80;;;20.10;56.50;;;;;;5013146;28;20263;-58
2022/04/25 02:58:08;;;;;;;1.80;0.98;;;20.20;56.40;;;;;;5013547;28;20200;-58
2022/04/25 03:00:40;;;;;;;1.58;1.00;;;20.20;56.40;;;;;;5014107;28;20200;-58
2022/04/25 03:03:10;;;;;;;1.17;0.88;;;20.30;56.40;;;;;;5013659;28;20657;-58
2022/04/25 03:05:41;;;;;;;1.00;0.77;;;20.30;56.40;;;;;;5013561;28;20275;-58
2022/04/25 03:08:12;;;;;;;1.75;0.93;;;20.30;56.30;;;;;;5013458;28;20271;-58
2022/04/25 03:10:45;;;;;;;1.77;1.00;;;20.40;56.30;;;;;;5013212;28;20193;-58
2022/04/25 03:13:17;;;;;;;1.52;0.65;;;20.40;56.30;;;;;;5012757;28;20320;-58
2022/04/25 03:15:48;;;;;;;1.52;0.80;;;20.50;56.20;;;;;;4993563;28;20259;-58
2022/04/25 03:18:23;;;;;;;1.73;0.73;;;20.50;56.20;;;;;;4993979;28;20194;-58
2022/04/25 03:20:54;;;;;;;2.05;1.05;;;20.50;56.20;;;;;;4993685;28;20204;-58
2022/04/25 03:23:26;;;;;;;0.90;0.60;;;20.60;56.10;;;;;;4993793;28;20248;-58
2022/04/25 03:25:58;;;;;;;1.33;0.73;;;20.60;56.10;;;;;;5008191;28;20216;-58
2022/04/25 03:28:29;;;;;;;1.98;0.85;;;20.70;56.00;;;;;;5012932;28;20322;-59
2022/04/25 03:30:59;;;;;;;1.50;1.00;;;20.70;56.00;;;;;;5013338;28;20216;-58
2022/04/25 03:33:31;;;;;;;1.10;0.63;;;20.80;56.00;;;;;;5013644;28;20196;-58
2022/04/25 03:36:02;;;;;;;0.88;0.70;;;20.80;56.00;;;;;;5013078;28;20212;-58
2022/04/25 03:38:32;;;;;;;1.30;0.63;;;20.90;56.30;;;;;;5013247;28;20251;-59
2022/04/25 03:41:05;;;;;;;1.77;1.08;;;20.90;56.30;;;;;;5012684;28;20301;-58
2022/04/25 03:43:35;;;;;;;1.50;1.00;;;20.90;56.30;;;;;;5023420;28;20200;-57
2022/04/25 03:46:06;;;;;;;2.30;1.00;;;21.00;56.30;;;;;;5029551;28;20300;-58
2022/04/25 03:48:39;;;;;;;1.92;0.93;;;21.00;56.30;;;;;;5028017;28;20224;-58
2022/04/25 03:51:10;;;;;;;1.15;0.70;;;21.10;56.30;;;;;;5029537;28;20746;-58
2022/04/25 03:53:40;;;;;;;2.50;0.95;;;21.10;56.30;;;;;;5028815;28;20257;-58
2022/04/25 03:58:59;;;;;;;2.10;0.98;;;21.20;56.20;;;;;;5029615;28;20274;-58
2022/04/25 04:01:31;;;;;;;1.13;0.80;;;21.20;56.10;;;;;;5028753;28;20250;-58
2022/04/25 04:04:05;;;;;;;1.25;0.73;;;21.30;56.10;;;;;;5029445;28;20299;-58
2022/04/25 04:06:36;;;;;;;1.27;0.77;;;21.30;56.10;;;;;;5028709;28;20758;-58
2022/04/25 04:11:52;;;;;;;1.42;0.70;;;21.40;56.00;;;;;;5028291;28;20246;-58
2022/04/25 04:14:23;;;;;;;1.92;0.80;;;21.40;56.00;;;;;;5027634;28;20766;-57
2022/04/25 04:16:53;;;;;;;1.15;0.70;;;21.40;55.90;;;;;;5029096;28;20263;-58
2022/04/25 04:19:24;;;;;;;1.67;1.15;;;21.50;55.90;;;;;;5029263;28;20278;-58
2022/04/25 04:21:54;;;;;;;1.17;0.80;;;21.50;55.80;;;;;;5029123;28;20220;-58
2022/04/25 04:24:25;;;;;;;1.95;1.02;;;21.50;55.80;;;;;;5028813;28;20192;-58
2022/04/25 04:26:57;;;;;;;1.45;0.60;;;21.50;55.80;;;;;;5028408;28;20297;-58
2022/04/25 04:29:28;;;;;;;2.88;0.80;;;21.60;55.80;;;;;;5029143;28;20755;-58
2022/04/25 04:32:00;;;;;;;1.42;0.82;;;21.60;55.80;;;;;;5028404;28;20197;-58
2022/04/25 04:34:31;;;;;;;0.70;0.52;;;21.60;55.70;;;;;;5026922;28;20189;-58
2022/04/25 04:37:01;;;;;;;1.55;0.80;;;21.60;55.60;;;;;;5026535;28;20216;-58
2022/04/25 04:39:33;;;;;;;0.93;0.70;;;21.70;55.70;;;;;;5026400;28;20726;-58
2022/04/25 04:42:06;;;;;;;1.63;0.90;;;21.70;55.60;;;;;;5029787;28;20230;-58
2022/04/25 04:44:37;;;;;;;1.73;0.80;;;21.70;55.60;;;;;;5027764;28;20228;-58
2022/04/25 04:47:08;;;;;;;1.95;0.85;;;21.70;55.50;;;;;;5028548;28;20212;-58
2022/04/25 04:49:39;;;;;;;2.45;0.80;;;21.70;55.40;;;;;;5028103;28;20258;-58
2022/04/25 04:52:09;;;;;;;2.05;0.80;;;21.80;55.40;;;;;;5027332;28;20227;-58
2022/04/25 04:54:40;;;;;;;4.07;1.90;;;21.80;55.30;;;;;;5028561;28;20220;-58
2022/04/25 04:57:12;;;;;;;3.45;2.22;;;21.80;55.40;;;;;;5027532;28;20290;-58
2022/04/25 04:59:43;;;;;;;2.47;1.90;;;21.80;55.30;;;;;;5026116;28;20196;-58
2022/04/25 05:02:17;;;;;;;3.30;2.00;;;21.80;55.40;;;;;;5027602;28;20200;-58
2022/04/25 05:04:49;;;;;;;3.80;1.92;;;21.80;55.40;;;;;;5028074;28;20192;-58
2022/04/25 05:07:20;;;;;;;3.80;2.58;;;21.90;55.30;;;;;;5028083;28;20220;-58
2022/04/25 05:09:51;;;;;;;3.45;2.65;;;21.90;55.30;;;;;;5028760;28;20219;-57
2022/04/25 05:12:23;;;;;;;3.00;2.47;;;21.90;55.30;;;;;;5028457;28;20264;-57
2022/04/25 05:14:54;;;;;;;4.93;2.28;;;21.90;55.30;;;;;;5027608;28;20227;-57
2022/04/25 05:17:25;;;;;;;3.45;2.38;;;21.90;55.30;;;;;;5027170;28;20216;-57
2022/04/25 05:19:55;;;;;;;5.18;2.88;;;21.90;55.20;;;;;;5027732;28;20200;-58
2022/04/25 05:22:26;;;;;;;2.88;2.38;;;21.90;55.30;;;;;;5025925;28;20245;-58
2022/04/25 05:24:56;;;;;;;4.70;2.78;;;21.90;55.30;;;;;;5027149;28;20820;-58
2022/04/25 05:27:28;;;;;;;4.45;3.30;;;21.90;55.20;;;;;;5028010;28;20199;-59
2022/04/25 05:29:59;;;;;;;5.50;3.35;;;21.90;55.10;;;;;;5027642;28;20195;-58
2022/04/25 05:32:30;;;;;;;4.28;2.90;;;21.90;55.10;;;;;;5027546;28;20290;-58
2022/04/25 05:35:00;;;;;;;4.20;2.92;;;22.00;55.10;;;;;;5026780;28;20281;-58
2022/04/25 05:37:31;;;;;;;2.80;2.50;;;21.90;55.10;;;;;;5027784;28;20250;-58
2022/04/25 05:40:01;;;;;;;3.92;3.05;;;21.90;55.10;;;;;;5027987;28;20227;-58
2022/04/25 05:42:33;;;;;;;3.97;2.88;;;21.90;55.10;;;;;;5028616;28;20251;-58
2022/04/25 05:45:05;;;;;;;3.97;2.40;;;21.90;55.10;;;;;;5027704;28;21435;-59
2022/04/25 05:47:36;;;;;;;2.78;2.53;;;21.90;55.00;;;;;;5027488;28;20196;-58
2022/04/25 05:52:55;;;;;;;2.85;2.50;;;21.90;54.90;;;;;;5027198;28;20257;-58
2022/04/25 05:55:25;;;;;;;4.50;2.83;;;21.90;54.90;;;;;;5027855;28;20768;-58
2022/04/25 05:57:58;;;;;;;4.03;2.92;;;21.90;54.90;;;;;;5027507;28;20278;-59
2022/04/25 06:00:29;;;;;;;4.10;2.88;;;21.90;54.90;;;;;;5028393;28;20283;-58
2022/04/25 06:03:00;;;;;;;3.38;2.92;;;21.90;54.90;;;;;;5027812;28;20192;-58
2022/04/25 06:05:30;;;;;;;4.15;2.92;;;21.80;54.90;;;;;;5027392;28;20212;-58
2022/04/25 06:08:01;;;;;;;3.35;2.85;;;21.80;54.90;;;;;;5026436;28;20278;-58
2022/04/25 06:10:32;;;;;;;2.90;2.60;;;21.80;54.90;;;;;;5027305;28;20266;-58
2022/04/25 06:13:04;;;;;;;4.15;2.92;;;21.80;54.90;;;;;;5027477;28;20196;-59
2022/04/25 06:15:35;;;;;;;4.70;3.20;;;21.80;54.80;;;;;;5026987;28;20216;-58
2022/04/25 06:18:05;;;;;;;3.67;2.97;;;21.80;54.80;;;;;;5026500;28;20281;-59
2022/04/25 06:20:37;;;;;;;4.15;3.45;;;21.80;54.80;;;;;;5024776;28;20274;-59
2022/04/25 06:23:07;;;;;;;5.38;3.72;;;21.80;54.80;;;;;;5026429;28;20316;-58
2022/04/25 06:25:38;;;;;;;4.57;3.22;;;21.70;54.80;;;;;;5025905;28;20275;-58
2022/04/25 06:28:10;;;;;;;4.05;3.05;;;21.70;54.80;;;;;;5026804;28;20611;-59
2022/04/25 06:30:41;;;;;;;3.72;3.00;;;21.70;54.80;;;;;;5025869;28;20290;-58
2022/04/25 06:33:12;;;;;;;4.68;3.20;;;21.70;54.70;;;;;;5022931;28;20247;-58
2022/04/25 06:35:42;;;;;;;5.15;3.45;;;21.60;54.70;;;;;;5025495;28;20208;-58
2022/04/25 06:38:15;;;;;;;4.53;3.15;;;21.60;54.60;;;;;;5028339;28;20228;-58
2022/04/25 06:40:46;;;;;;;3.58;3.13;;;21.60;54.70;;;;;;5027697;28;20211;-58
2022/04/25 06:43:18;;;;;;;5.07;3.55;;;21.60;54.60;;;;;;5028806;28;20208;-59
2022/04/25 06:45:49;;;;;;;5.30;3.65;;;21.50;54.60;;;;;;5029363;28;20802;-58
2022/04/25 06:48:19;;;;;;;3.60;2.92;;;21.50;54.70;;;;;;5029691;28;20247;-58
2022/04/25 06:50:50;;;;;;;4.78;3.40;;;21.50;54.70;;;;;;5028758;28;20193;-59
2022/04/25 06:53:20;;;;;;;3.78;2.72;;;21.50;54.70;;;;;;5029064;28;20224;-58
2022/04/25 06:55:51;;;;;;;4.28;3.40;;;21.40;54.70;;;;;;5029472;28;20247;-59
2022/04/25 06:58:26;;;;;;;3.35;2.65;;;21.40;54.70;;;;;;5027851;28;20258;-57
2022/04/25 07:00:56;;;;;;;11.20;8.27;;;21.40;54.70;;;;;;5029739;28;20200;-58
2022/04/25 07:03:27;;;;;;;12.98;9.00;;;21.40;55.00;;;;;;5028986;28;20253;-59
2022/04/25 07:05:58;;;;;;;7.70;5.45;;;21.40;55.10;;;;;;5029434;28;20784;-58
2022/04/25 07:08:29;;;;;;;6.32;5.32;;;21.30;55.10;;;;;;5029958;28;20299;-59
2022/04/25 07:10:59;;;;;;;7.18;5.47;;;21.30;55.10;;;;;;5029022;28;20547;-58
2022/04/25 07:13:32;;;;;;;8.05;5.82;;;21.30;55.10;;;;;;5028342;28;20251;-59
2022/04/25 07:16:02;;;;;;;6.20;5.00;;;21.30;55.00;;;;;;5025723;28;20244;-59
2022/04/25 07:18:33;;;;;;;6.82;4.97;;;21.30;55.00;;;;;;5013762;28;20205;-59
2022/04/25 07:28:48;;;;;;;6.40;5.30;;;21.20;55.00;;;;;;5012923;28;20193;-59
2022/04/25 07:29:30;;;;;;;6.38;5.00;;;21.10;55.00;;;;;;5013276;28;20220;-60
2022/04/25 07:32:01;;;;;;;7.07;4.72;;;21.10;55.00;;;;;;5012333;28;20224;-58
2022/04/25 07:34:32;;;;;;;7.22;5.35;;;21.10;55.00;;;;;;5012672;28;20247;-59
2022/04/25 07:37:03;;;;;;;7.53;5.35;;;21.10;55.00;;;;;;5012628;28;20216;-59
2022/04/25 07:39:34;;;;;;;6.15;4.60;;;21.00;55.00;;;;;;5012724;28;20193;-58
2022/04/25 07:42:05;;;;;;;7.38;4.80;;;21.00;55.00;;;;;;5013549;28;20601;-58
2022/04/25 07:44:38;;;;;;;6.30;4.55;;;21.00;55.10;;;;;;5013461;28;20193;-59
2022/04/25 07:47:08;;;;;;;7.35;4.97;;;21.00;55.10;;;;;;5012580;28;20287;-59
2022/04/25 07:49:40;;;;;;;7.13;4.47;;;20.90;55.10;;;;;;5012779;28;20260;-59
2022/04/25 07:52:11;;;;;;;6.63;4.78;;;20.90;55.10;;;;;;5012824;28;20280;-57
2022/04/25 07:54:41;;;;;;;4.43;4.03;;;20.90;55.10;;;;;;5012832;28;20201;-57
2022/04/25 07:57:12;;;;;;;8.95;5.70;;;20.90;55.10;;;;;;5000639;28;20225;-57
2022/04/25 07:59:44;;;;;;;5.55;4.75;;;20.80;55.30;;;;;;4992781;28;20197;-58
2022/04/25 08:02:17;;;;;;;6.70;4.32;;;20.80;55.40;;;;;;4998645;28;20232;-59
2022/04/25 08:04:48;;;;;;;4.93;3.88;;;20.80;55.40;;;;;;5012536;28;20645;-58
2022/04/25 08:07:19;;;;;;;5.75;4.35;;;20.80;55.30;;;;;;5012105;28;20221;-56
2022/04/25 08:09:49;;;;;;;6.60;5.03;;;20.80;55.30;;;;;;5012207;28;20286;-59
2022/04/25 08:18:06;;;;;;;6.68;5.20;;;20.70;55.20;;;;;;5011849;28;20207;-57
2022/04/25 08:20:38;;;;;;;8.25;5.63;;;20.70;55.80;;;;;;5012670;28;20223;-57
2022/04/25 08:23:11;;;;;;;8.68;5.18;;;20.60;56.30;;;;;;5017697;28;20196;-58
2022/04/25 08:25:42;;;;;;;5.53;4.50;;;20.60;56.30;;;;;;5026633;28;20254;-58
2022/04/25 08:28:14;;;;;;;9.38;5.45;;;20.60;56.20;;;;;;5029188;28;20228;-58
2022/04/25 08:30:46;;;;;;;7.40;5.10;;;20.60;56.20;;;;;;5028601;28;20314;-58
2022/04/25 08:33:17;;;;;;;7.38;4.93;;;20.50;56.10;;;;;;5026581;28;20239;-57
2022/04/25 08:35:47;;;;;;;7.68;5.07;;;20.50;56.10;;;;;;5028547;28;20243;-57
2022/04/25 08:38:18;;;;;;;7.53;4.88;;;20.50;56.10;;;;;;5028602;28;20196;-57
2022/04/25 08:40:51;;;;;;;6.90;4.70;;;20.50;56.10;;;;;;5027209;28;20228;-57
2022/04/25 08:43:22;;;;;;;6.22;4.60;;;20.50;56.10;;;;;;5027984;28;20283;-58
2022/04/25 08:45:56;;;;;;;7.78;4.80;;;20.50;56.10;;;;;;5028001;28;20585;-57
2022/04/25 08:48:28;;;;;;;5.85;4.20;;;20.40;56.00;;;;;;5028186;28;20249;-57
2022/04/25 08:51:00;;;;;;;8.00;4.55;;;20.40;56.00;;;;;;5029001;28;20254;-57
2022/04/25 08:53:30;;;;;;;6.88;4.82;;;20.40;55.90;;;;;;5025995;28;20228;-58
2022/04/25 08:56:01;;;;;;;5.65;4.22;;;20.40;55.90;;;;;;5029081;28;20239;-58
2022/04/25 08:58:33;;;;;;;6.07;3.72;;;20.40;55.80;;;;;;5027559;28;20334;-58
2022/04/25 09:01:05;;;;;;;5.90;4.60;;;20.40;55.80;;;;;;5027420;28;20254;-58
2022/04/25 09:03:36;;;;;;;6.88;4.45;;;20.30;55.80;;;;;;5028064;28;20231;-58
2022/04/25 09:06:08;;;;;;;6.75;3.95;;;20.30;55.80;;;;;;5027586;28;20251;-58
2022/04/25 09:08:39;;;;;;;5.63;4.15;;;20.30;55.80;;;;;;5027799;28;20200;-58
2022/04/25 09:13:56;;;;;;;5.93;4.00;;;20.20;55.80;;;;;;5027584;28;20337;-58
2022/04/25 09:16:29;;;;;;;5.90;4.20;;;20.20;55.80;;;;;;5025676;28;20240;-58
2022/04/25 09:18:59;;;;;;;6.65;4.30;;;20.20;55.80;;;;;;5026413;28;20250;-58
2022/04/25 09:21:30;;;;;;;6.18;4.40;;;20.20;56.10;;;;;;5023537;28;20196;-58
2022/04/25 09:24:01;;;;;;;4.85;4.18;;;20.10;55.80;;;;;;5028494;28;20293;-58
2022/04/25 09:26:32;;;;;;;5.60;4.15;;;20.10;55.80;;;;;;5027708;28;20223;-57
2022/04/25 09:29:02;;;;;;;6.45;4.40;;;20.10;55.80;;;;;;5027849;28;20676;-57
2022/04/25 09:31:35;;;;;;;4.57;3.90;;;20.00;55.80;;;;;;5027982;28;20659;-58
2022/04/25 09:34:59;;;;;;;5.93;4.40;;;20.10;55.90;;;;;;5027078;28;20192;-58
2022/04/25 09:37:08;;;;;;;6.78;4.55;;;20.00;55.90;;;;;;5027934;28;20302;-58
2022/04/25 09:39:38;;;;;;;5.35;4.07;;;20.00;55.90;;;;;;5027332;28;20257;-58
2022/04/25 09:42:10;;;;;;;6.25;4.40;;;20.00;55.90;;;;;;5028209;28;20235;-58
2022/04/25 09:44:58;;;;;;;5.10;3.72;;;20.00;55.90;;;;;;5027069;28;20196;-58
2022/04/25 09:47:34;;;;;;;6.53;4.15;;;20.00;56.00;;;;;;5027981;28;20196;-58
2022/04/25 09:50:06;;;;;;;7.07;4.43;;;20.00;55.90;;;;;;5027208;28;20254;-58
2022/04/25 09:52:38;;;;;;;5.53;4.03;;;19.90;55.90;;;;;;5027555;28;20232;-58
2022/04/25 09:55:18;;;;;;;6.05;4.40;;;19.90;55.90;;;;;;5026895;28;20272;-58
2022/04/25 09:57:50;;;;;;;7.78;4.38;;;19.90;55.90;;;;;;5027911;28;20191;-58
2022/04/25 10:00:33;;;;;;;4.07;3.65;;;19.90;55.90;;;;;;5027852;28;20193;-58
2022/04/25 10:03:06;;;;;;;5.75;3.90;;;19.90;55.90;;;;;;5028104;28;20275;-58
2022/04/25 10:05:41;;;;;;;5.57;3.58;;;19.90;55.90;;;;;;5026456;28;20212;-58
2022/04/25 10:08:13;;;;;;;5.43;3.92;;;19.90;55.90;;;;;;5027252;28;20194;-58
2022/04/25 10:10:48;;;;;;;4.72;3.97;;;19.80;55.90;;;;;;5027586;28;20286;-58
2022/04/25 10:13:19;;;;;;;5.15;3.95;;;19.80;55.90;;;;;;5030261;28;20651;-57
2022/04/25 10:15:49;;;;;;;4.95;3.80;;;19.80;56.00;;;;;;5030866;28;20211;-58
2022/04/25 10:18:22;;;;;;;4.72;3.67;;;19.80;56.00;;;;;;5030917;28;20326;-58
2022/04/25 10:20:53;;;;;;;5.78;4.15;;;19.80;56.10;;;;;;5031025;28;20208;-58
2022/04/25 10:23:24;;;;;;;4.72;3.60;;;19.80;56.10;;;;;;5027626;28;20293;-58
2022/04/25 10:25:56;;;;;;;4.32;3.72;;;19.70;56.00;;;;;;5031406;28;20840;-58
2022/04/25 10:28:31;;;;;;;4.70;3.88;;;19.70;56.10;;;;;;5030853;28;20228;-58
2022/04/25 10:31:04;;;;;;;5.40;3.20;;;19.70;56.10;;;;;;5031244;28;20219;-58
2022/04/25 10:33:52;;;;;;;5.25;3.88;;;19.70;56.10;;;;;;5030952;28;20703;-58
2022/04/25 10:36:53;;;;;;;5.07;3.47;;;19.70;56.10;;;;;;5030383;28;20227;-58
2022/04/25 10:39:24;;;;;;;4.20;3.35;;;19.70;56.10;;;;;;5023226;28;20211;-58
2022/04/25 10:45:01;;;;;;;4.90;3.72;;;19.70;56.10;;;;;;5030918;28;20199;-58
2022/04/25 10:47:31;;;;;;;5.97;3.60;;;19.60;56.00;;;;;;5030949;28;20223;-57
2022/04/25 10:50:11;;;;;;;3.63;3.30;;;19.60;56.10;;;;;;5029052;28;20259;-58
2022/04/25 10:52:57;;;;;;;4.50;3.33;;;19.60;56.10;;;;;;5030845;28;20196;-58
2022/04/25 10:55:38;;;;;;;4.88;3.50;;;19.60;56.10;;;;;;5030800;28;20226;-58
2022/04/25 10:58:32;;;;;;;4.97;3.78;;;19.60;56.10;;;;;;5030849;28;20195;-58
2022/04/25 11:01:02;;;;;;;4.28;3.10;;;19.60;56.10;;;;;;5012619;28;20208;-57
2022/04/25 11:03:34;;;;;;;4.57;3.67;;;19.60;56.10;;;;;;5029255;28;20193;-58
2022/04/25 11:06:08;;;;;;;4.55;3.28;;;19.60;56.10;;;;;;5030040;28;20302;-58
2022/04/25 11:08:51;;;;;;;5.78;3.53;;;19.50;56.10;;;;;;5022824;28;20201;-58
2022/04/25 11:11:23;;;;;;;4.53;3.20;;;19.50;56.20;;;;;;5013446;28;20227;-58
2022/04/25 11:14:20;;;;;;;4.75;3.30;;;19.50;56.10;;;;;;5013046;28;20193;-58
2022/04/25 11:17:08;;;;;;;4.70;3.40;;;19.50;56.20;;;;;;4977936;28;20217;-58
2022/04/25 11:19:48;;;;;;;4.25;3.00;;;19.50;56.10;;;;;;5011511;28;20241;-58
2022/04/25 11:22:50;;;;;;;4.53;3.22;;;19.50;56.10;;;;;;5011706;28;20266;-58
2022/04/25 11:25:43;;;;;;;4.10;2.90;;;19.50;56.20;;;;;;5008847;28;20195;-58
2022/04/25 11:28:15;;;;;;;4.55;3.10;;;19.50;56.10;;;;;;5011900;28;20200;-58
2022/04/25 11:30:46;;;;;;;3.35;2.95;;;19.50;56.20;;;;;;5011011;28;20246;-58
2022/04/25 11:33:16;;;;;;;4.40;3.33;;;19.50;56.20;;;;;;5007787;28;20757;-58
2022/04/25 11:35:47;;;;;;;5.20;3.10;;;19.40;56.10;;;;;;5009788;28;20279;-58
2022/04/25 11:39:50;;;;;;;4.30;2.80;;;19.40;56.10;;;;;;5007910;28;20271;-57
2022/04/25 11:41:10;;;;;;;3.83;3.22;;;19.40;56.10;;;;;;5010452;28;20284;-58
2022/04/25 11:43:42;;;;;;;4.20;2.80;;;19.40;56.10;;;;;;5011012;28;20197;-57
2022/04/25 11:46:12;;;;;;;4.22;2.90;;;19.40;56.10;;;;;;5010479;28;20209;-58
2022/04/25 11:48:43;;;;;;;3.60;2.88;;;19.40;56.10;;;;;;5010525;28;20201;-57
2022/04/25 11:51:16;;;;;;;3.70;3.05;;;19.40;56.20;;;;;;5007817;28;20224;-58
2022/04/25 11:53:49;;;;;;;3.25;2.67;;;19.40;56.20;;;;;;5010170;28;20716;-58
2022/04/25 11:56:23;;;;;;;3.80;2.85;;;19.40;56.20;;;;;;5008346;28;20240;-57
2022/04/25 11:58:54;;;;;;;4.25;3.05;;;19.40;56.20;;;;;;5007230;28;20703;-58
2022/04/25 12:01:37;;;;;;;4.22;2.95;;;19.40;56.20;;;;;;5009689;28;20189;-57
2022/04/25 12:04:18;;;;;;;3.88;2.90;;;19.30;56.20;;;;;;5009215;28;20195;-57
2022/04/25 12:06:52;;;;;;;4.32;3.13;;;19.30;56.10;;;;;;5008885;28;20699;-56
2022/04/25 12:17:51;;;;;;;3.63;2.83;;;19.30;56.10;;;;;;5008931;28;20569;-57
2022/04/25 12:20:32;;;;;;;3.78;2.70;;;19.30;56.10;;;;;;5008575;28;20193;-58
2022/04/25 12:23:03;;;;;;;3.65;2.70;;;19.30;56.20;;;;;;5008100;28;20200;-57
2022/04/25 12:25:34;;;;;;;4.78;2.80;;;19.30;56.20;;;;;;5006938;28;20248;-59
2022/04/25 12:28:09;;;;;;;4.10;2.80;;;19.30;56.20;;;;;;5009681;28;20657;-57
2022/04/25 12:30:51;;;;;;;5.72;2.80;;;19.30;56.20;;;;;;5007776;28;20224;-57
2022/04/25 12:33:22;;;;;;;3.97;2.95;;;19.20;56.10;;;;;;5007801;28;20200;-58
2022/04/25 12:36:11;;;;;;;4.03;2.70;;;19.20;56.10;;;;;;5004815;28;20299;-57
2022/04/25 12:38:47;;;;;;;2.95;2.70;;;19.20;56.10;;;;;;5007776;28;20282;-58
2022/04/25 12:41:24;;;;;;;3.72;2.42;;;19.20;56.20;;;;;;5007049;28;20238;-58
2022/04/25 12:43:58;;;;;;;4.28;2.78;;;19.20;56.20;;;;;;5010140;28;20223;-58
2022/04/25 12:46:40;;;;;;;3.67;2.40;;;19.20;56.20;;;;;;5008962;28;20256;-58
2022/04/25 12:49:13;;;;;;;3.65;2.53;;;19.20;56.20;;;;;;5008779;28;20193;-58
2022/04/25 12:52:00;;;;;;;2.97;2.30;;;19.20;56.20;;;;;;5007167;28;20227;-58
2022/04/25 12:54:32;;;;;;;3.45;2.45;;;19.20;56.20;;;;;;5008325;28;20220;-58
2022/04/25 12:57:15;;;;;;;3.75;2.70;;;19.20;56.20;;;;;;5009757;28;20213;-58
2022/04/25 13:00:00;;;;;;;3.38;2.60;;;19.20;56.20;;;;;;5010313;28;20596;-59
2022/04/25 13:02:37;;;;;;;4.30;2.50;;;19.20;56.20;;;;;;5010411;28;20200;-59
2022/04/25 13:05:09;;;;;;;3.22;2.42;;;19.20;56.20;;;;;;5010430;28;20207;-58
2022/04/25 13:07:41;;;;;;;3.72;2.50;;;19.20;56.20;;;;;;5009104;28;20676;-58
2022/04/25 13:10:12;;;;;;;3.03;2.22;;;19.10;56.10;;;;;;5000193;28;20283;-59
2022/04/25 13:12:44;;;;;;;4.45;2.50;;;19.10;56.10;;;;;;4990323;28;20198;-58
2022/04/25 13:15:17;;;;;;;2.63;2.20;;;19.10;56.20;;;;;;4989944;28;20260;-59
2022/04/25 13:17:48;;;;;;;3.17;2.30;;;19.10;56.20;;;;;;4989758;28;20283;-59
2022/04/25 13:20:20;;;;;;;2.58;2.17;;;19.10;56.20;;;;;;4989956;28;20205;-59
2022/04/25 13:22:51;;;;;;;4.00;2.65;;;19.10;56.20;;;;;;4990286;28;20201;-58
2022/04/25 13:25:23;;;;;;;3.78;2.22;;;19.10;56.20;;;;;;5000948;28;20564;-58
2022/04/25 13:27:54;;;;;;;2.75;2.40;;;19.10;56.20;;;;;;5009663;28;20271;-57
2022/04/25 13:30:27;;;;;;;3.20;2.42;;;19.10;56.20;;;;;;5009682;28;20283;-58
2022/04/25 13:32:57;;;;;;;3.40;2.55;;;19.00;56.20;;;;;;5010057;28;20228;-57
2022/04/25 13:35:28;;;;;;;3.08;2.33;;;19.00;56.20;;;;;;5010267;28;20217;-57
2022/04/25 13:37:59;;;;;;;3.88;2.20;;;19.00;56.10;;;;;;5010106;28;20212;-57
2022/04/25 13:40:29;;;;;;;3.50;2.20;;;19.00;56.20;;;;;;5009114;28;20197;-57
2022/04/25 13:43:00;;;;;;;3.55;2.50;;;19.00;56.20;;;;;;5009797;28;20262;-57
2022/04/25 13:45:32;;;;;;;2.88;2.10;;;19.00;56.20;;;;;;5008872;28;20259;-59
2022/04/25 13:48:03;;;;;;;2.58;2.13;;;19.00;56.20;;;;;;5013383;28;20193;-57
2022/04/25 13:50:35;;;;;;;2.70;2.20;;;19.00;56.20;;;;;;5012958;28;20220;-58
2022/04/25 13:53:05;;;;;;;3.20;2.50;;;19.00;56.20;;;;;;5013505;28;20207;-57